Time;durP1;ratioP1;P1;durP2;ratioP2;P2;SDS_P1;SDS_P2;PMS_P1;PMS_P2;Temp;Humidity;BMP_temperature;BMP_pressure;BME280_temperature;BME280_humidity;BME280_pressure;Samples;Min_cycle;Max_cycle;Signal;HPM_P1;HPM_P2
2022/12/31 00:01:28;;;;;;;1.63;0.47;;;11.70;99.90;;;;;;4990224;28;20802;-51
2022/12/31 00:03:57;;;;;;;0.17;0.17;;;11.70;99.90;;;;;;4991604;28;20670;-50
2022/12/31 00:06:26;;;;;;;0.10;0.10;;;11.70;99.90;;;;;;4991217;28;20825;-51
2022/12/31 00:08:55;;;;;;;0.30;0.30;;;11.60;99.90;;;;;;4993892;28;20207;-51
2022/12/31 00:11:25;;;;;;;0.77;0.20;;;11.60;99.90;;;;;;4998700;28;20238;-51
2022/12/31 00:13:53;;;;;;;0.10;0.10;;;11.60;99.90;;;;;;4996271;28;20213;-50
2022/12/31 00:16:22;;;;;;;0.10;0.10;;;11.50;99.90;;;;;;4997443;28;20229;-51
2022/12/31 00:18:52;;;;;;;0.10;0.10;;;11.60;99.90;;;;;;4990731;28;20227;-51
2022/12/31 00:21:20;;;;;;;0.30;0.30;;;11.60;99.90;;;;;;4992684;28;20206;-50
2022/12/31 00:23:48;;;;;;;0.00;0.00;;;11.60;99.90;;;;;;4993910;28;20272;-50
2022/12/31 00:26:17;;;;;;;0.07;0.07;;;11.70;99.90;;;;;;4993062;28;20224;-50
2022/12/31 00:28:46;;;;;;;0.10;0.10;;;11.70;99.90;;;;;;4992657;28;20210;-50
2022/12/31 00:31:16;;;;;;;0.10;0.10;;;11.80;99.90;;;;;;4995935;28;20588;-51
2022/12/31 00:33:44;;;;;;;0.30;0.30;;;11.80;99.90;;;;;;4994499;28;20221;-51
2022/12/31 00:36:13;;;;;;;0.93;0.10;;;11.90;99.90;;;;;;4993680;28;20225;-50
2022/12/31 00:38:41;;;;;;;0.10;0.10;;;12.00;99.90;;;;;;4992760;28;20219;-51
2022/12/31 00:41:09;;;;;;;0.20;0.20;;;12.00;99.90;;;;;;4994382;28;20207;-51
2022/12/31 00:43:36;;;;;;;0.60;0.00;;;12.00;99.90;;;;;;4991117;28;20206;-51
2022/12/31 00:46:06;;;;;;;0.97;0.10;;;12.10;99.90;;;;;;4999015;28;20237;-51
2022/12/31 00:48:34;;;;;;;0.10;0.10;;;12.10;99.90;;;;;;5004435;28;20211;-51
2022/12/31 00:51:02;;;;;;;0.10;0.10;;;12.10;99.90;;;;;;5006340;28;20611;-51
2022/12/31 00:53:29;;;;;;;0.00;0.00;;;12.10;99.90;;;;;;5004865;28;20217;-51
2022/12/31 00:56:01;;;;;;;0.07;0.07;;;12.10;99.90;;;;;;5000221;28;20709;-51
2022/12/31 00:58:28;;;;;;;0.30;0.30;;;12.10;99.90;;;;;;4994170;28;20670;-51
2022/12/31 01:00:55;;;;;;;0.10;0.10;;;12.10;99.90;;;;;;5011950;28;20254;-51
2022/12/31 01:03:24;;;;;;;0.10;0.10;;;12.10;99.90;;;;;;5000395;28;20213;-51
2022/12/31 01:05:52;;;;;;;1.03;0.00;;;12.10;99.90;;;;;;5003827;28;20225;-51
2022/12/31 01:08:19;;;;;;;0.03;0.00;;;12.10;99.90;;;;;;5014047;28;20204;-50
2022/12/31 01:13:33;;;;;;;0.10;0.10;;;12.20;99.90;;;;;;5002253;28;20700;-50
2022/12/31 01:16:07;;;;;;;0.00;0.00;;;12.10;99.90;;;;;;5005216;28;20229;-51
2022/12/31 01:18:35;;;;;;;0.10;0.10;;;12.20;99.90;;;;;;5010723;28;20374;-51
2022/12/31 01:21:03;;;;;;;0.00;0.00;;;12.20;99.90;;;;;;5010690;28;20218;-51
2022/12/31 01:23:30;;;;;;;0.97;0.10;;;12.20;99.90;;;;;;4991565;28;20202;-50
2022/12/31 01:26:01;;;;;;;0.00;0.00;;;12.10;99.90;;;;;;4989525;28;20225;-50
2022/12/31 01:28:28;;;;;;;0.00;0.00;;;12.00;99.90;;;;;;4999707;28;20650;-50
2022/12/31 01:30:55;;;;;;;0.10;0.10;;;12.00;99.90;;;;;;5004952;28;20209;-51
2022/12/31 01:33:23;;;;;;;0.00;0.00;;;11.90;99.90;;;;;;5012392;28;20209;-51
2022/12/31 01:35:51;;;;;;;0.00;0.00;;;11.80;99.90;;;;;;5004831;28;20276;-51
2022/12/31 01:38:18;;;;;;;0.10;0.10;;;11.80;99.90;;;;;;4997605;28;20209;-50
2022/12/31 01:40:45;;;;;;;0.00;0.00;;;11.90;99.90;;;;;;4994647;28;20206;-51
2022/12/31 01:43:16;;;;;;;1.10;0.10;;;12.00;99.90;;;;;;4998876;28;20669;-51
2022/12/31 01:45:45;;;;;;;0.10;0.10;;;12.00;99.90;;;;;;5038001;22;20237;-52
2022/12/31 01:48:14;;;;;;;1.03;0.00;;;12.00;99.90;;;;;;4981669;28;20214;-52
2022/12/31 01:50:43;;;;;;;0.20;0.00;;;12.10;99.90;;;;;;4976585;28;20672;-50
2022/12/31 01:53:11;;;;;;;1.03;0.00;;;12.10;99.90;;;;;;4992451;28;20267;-51
2022/12/31 01:55:44;;;;;;;1.40;0.10;;;12.20;99.90;;;;;;4988656;28;20310;-50
2022/12/31 01:58:15;;;;;;;0.10;0.10;;;12.20;99.90;;;;;;4991720;28;20192;-49
2022/12/31 02:00:43;;;;;;;0.30;0.00;;;12.20;99.90;;;;;;4990534;28;20269;-51
2022/12/31 02:03:11;;;;;;;0.97;0.00;;;12.30;99.90;;;;;;4993035;28;20194;-51
2022/12/31 02:05:42;;;;;;;0.00;0.00;;;12.30;99.90;;;;;;4990817;28;20206;-51
2022/12/31 02:08:12;;;;;;;0.00;0.00;;;12.20;99.90;;;;;;4993184;28;20213;-50
2022/12/31 02:10:39;;;;;;;0.00;0.00;;;12.30;99.90;;;;;;4985553;28;20241;-51
2022/12/31 02:13:07;;;;;;;0.00;0.00;;;12.20;99.90;;;;;;4989855;28;20209;-51
2022/12/31 02:15:52;;;;;;;0.10;0.10;;;12.30;99.90;;;;;;4992648;28;20202;-50
2022/12/31 02:18:29;;;;;;;0.10;0.10;;;12.30;99.90;;;;;;4985637;28;20209;-50
2022/12/31 02:21:24;;;;;;;0.10;0.10;;;12.30;99.90;;;;;;4992660;28;20678;-50
2022/12/31 02:24:29;;;;;;;0.10;0.10;;;12.30;99.90;;;;;;4990759;28;20258;-50
2022/12/31 02:27:03;;;;;;;0.00;0.00;;;12.20;99.90;;;;;;4991197;28;20220;-50
2022/12/31 02:29:50;;;;;;;0.00;0.00;;;12.20;99.90;;;;;;4991573;28;20205;-50
2022/12/31 02:32:24;;;;;;;0.20;0.10;;;12.20;99.90;;;;;;4979633;28;20746;-50
2022/12/31 02:34:56;;;;;;;0.10;0.10;;;12.20;99.90;;;;;;4991634;28;20626;-51
2022/12/31 02:37:27;;;;;;;0.10;0.10;;;12.20;99.90;;;;;;4992638;28;20225;-50
2022/12/31 02:39:55;;;;;;;1.43;0.73;;;12.20;99.90;;;;;;4990214;28;20216;-50
2022/12/31 02:42:22;;;;;;;0.10;0.10;;;12.30;99.90;;;;;;4988115;28;20219;-50
2022/12/31 02:44:49;;;;;;;0.10;0.10;;;12.30;99.90;;;;;;4991933;28;20211;-51
2022/12/31 02:47:30;;;;;;;0.10;0.10;;;12.30;99.90;;;;;;4980464;28;20236;-50
2022/12/31 02:50:17;;;;;;;0.27;0.10;;;12.30;99.90;;;;;;4973148;28;20207;-50
2022/12/31 02:52:56;;;;;;;0.10;0.10;;;12.30;99.90;;;;;;4973403;28;20211;-51
2022/12/31 02:55:30;;;;;;;0.10;0.10;;;12.40;99.90;;;;;;4973938;28;20221;-51
2022/12/31 02:58:05;;;;;;;0.20;0.20;;;12.40;99.90;;;;;;4984347;28;20207;-50
2022/12/31 03:03:24;;;;;;;1.13;0.20;;;12.50;99.90;;;;;;4987741;28;20577;-51
2022/12/31 03:05:52;;;;;;;0.20;0.20;;;12.40;99.90;;;;;;4992044;28;20682;-50
2022/12/31 03:08:22;;;;;;;0.70;0.10;;;12.50;99.90;;;;;;4991346;28;20683;-50
2022/12/31 03:10:49;;;;;;;0.00;0.00;;;12.50;99.90;;;;;;4991355;28;20285;-51
2022/12/31 03:13:15;;;;;;;0.00;0.00;;;12.50;99.90;;;;;;4991411;28;20206;-50
2022/12/31 03:15:42;;;;;;;1.50;0.10;;;12.50;99.90;;;;;;4989817;28;20285;-51
2022/12/31 03:18:11;;;;;;;0.10;0.10;;;12.50;99.90;;;;;;4992429;28;20210;-51
2022/12/31 03:23:29;;;;;;;0.20;0.10;;;12.50;99.90;;;;;;4992184;28;20219;-50
2022/12/31 03:25:56;;;;;;;0.93;0.40;;;12.50;99.90;;;;;;4984124;28;20260;-50
2022/12/31 03:28:25;;;;;;;0.30;0.20;;;12.50;99.90;;;;;;4991554;28;20230;-50
2022/12/31 03:30:55;;;;;;;0.07;0.07;;;12.50;99.90;;;;;;4992195;28;20200;-50
2022/12/31 03:33:23;;;;;;;0.00;0.00;;;12.60;99.90;;;;;;4990072;28;20203;-50
2022/12/31 03:35:53;;;;;;;0.03;0.03;;;12.60;99.90;;;;;;4990917;28;20207;-51
2022/12/31 03:38:20;;;;;;;0.20;0.20;;;12.60;99.90;;;;;;4992131;28;20209;-51
2022/12/31 03:40:49;;;;;;;0.10;0.10;;;12.60;99.90;;;;;;4986859;28;20224;-50
2022/12/31 03:43:18;;;;;;;0.40;0.20;;;12.70;99.90;;;;;;4988993;28;20842;-51
2022/12/31 03:45:45;;;;;;;0.10;0.10;;;12.70;99.90;;;;;;4980135;28;20747;-50
2022/12/31 03:48:13;;;;;;;0.10;0.10;;;12.70;99.90;;;;;;4987794;28;20257;-50
2022/12/31 03:50:40;;;;;;;1.20;0.00;;;12.80;99.90;;;;;;4990242;28;20263;-50
2022/12/31 03:53:08;;;;;;;0.00;0.00;;;12.80;99.90;;;;;;4992296;28;20210;-50
2022/12/31 03:55:35;;;;;;;0.00;0.00;;;12.80;99.90;;;;;;4987507;28;20263;-50
2022/12/31 03:58:03;;;;;;;0.23;0.23;;;12.70;99.90;;;;;;4991342;28;20614;-51
2022/12/31 04:00:30;;;;;;;0.10;0.10;;;12.60;99.90;;;;;;4992410;28;20223;-51
2022/12/31 04:02:57;;;;;;;0.10;0.10;;;12.70;99.90;;;;;;4995506;28;20211;-51
2022/12/31 04:05:24;;;;;;;0.10;0.10;;;12.70;99.90;;;;;;4995416;28;20230;-51
2022/12/31 04:07:52;;;;;;;0.10;0.00;;;12.80;99.90;;;;;;4994438;28;20231;-51
2022/12/31 04:10:20;;;;;;;1.17;0.40;;;12.70;99.90;;;;;;4994118;28;20199;-50
2022/12/31 04:12:48;;;;;;;0.10;0.10;;;12.70;99.90;;;;;;4995119;28;20706;-50
2022/12/31 04:15:17;;;;;;;0.20;0.20;;;12.70;99.90;;;;;;4994310;28;20211;-51
2022/12/31 04:17:44;;;;;;;0.10;0.10;;;12.70;99.90;;;;;;4995197;28;20283;-51
2022/12/31 04:20:12;;;;;;;0.00;0.00;;;12.60;99.90;;;;;;4995266;28;20235;-50
2022/12/31 04:22:39;;;;;;;0.93;0.00;;;12.60;99.90;;;;;;4994141;28;20674;-50
2022/12/31 04:25:10;;;;;;;0.37;0.10;;;12.60;99.90;;;;;;4994471;28;20204;-50
2022/12/31 04:27:39;;;;;;;0.30;0.20;;;12.60;99.90;;;;;;4992760;28;20222;-51
2022/12/31 04:30:07;;;;;;;0.37;0.10;;;12.60;99.90;;;;;;4994922;28;20194;-50
2022/12/31 04:32:34;;;;;;;0.10;0.10;;;12.60;99.90;;;;;;4994895;28;20213;-50
2022/12/31 04:35:01;;;;;;;0.03;0.03;;;12.60;99.90;;;;;;4992065;28;20217;-50
2022/12/31 04:37:28;;;;;;;0.03;0.03;;;12.60;99.90;;;;;;4982849;28;20227;-50
2022/12/31 04:39:55;;;;;;;1.07;0.00;;;12.60;99.90;;;;;;4994606;28;20289;-51
2022/12/31 04:42:22;;;;;;;0.33;0.10;;;12.50;99.90;;;;;;4992790;28;20671;-50
2022/12/31 04:44:50;;;;;;;0.10;0.10;;;12.40;99.90;;;;;;4993598;28;20675;-51
2022/12/31 04:47:17;;;;;;;0.17;0.17;;;12.30;99.90;;;;;;5021774;28;20815;-51
2022/12/31 04:49:44;;;;;;;0.10;0.10;;;12.20;99.90;;;;;;5016456;28;20201;-50
2022/12/31 04:52:11;;;;;;;0.17;0.17;;;12.10;99.90;;;;;;5015691;28;20193;-51
2022/12/31 04:54:38;;;;;;;0.10;0.10;;;12.10;99.90;;;;;;5013971;28;20864;-50
2022/12/31 04:57:05;;;;;;;3.97;1.70;;;12.10;99.90;;;;;;5014369;28;20223;-50
2022/12/31 04:59:33;;;;;;;0.77;0.30;;;12.00;99.90;;;;;;5016726;28;20226;-49
2022/12/31 05:02:03;;;;;;;0.10;0.10;;;12.00;99.90;;;;;;5014372;28;20235;-49
2022/12/31 05:04:30;;;;;;;0.47;0.10;;;12.00;99.90;;;;;;5013686;28;20248;-51
2022/12/31 05:07:00;;;;;;;2.07;1.03;;;11.90;99.90;;;;;;5013991;28;20219;-50
2022/12/31 05:09:28;;;;;;;1.77;1.63;;;11.90;99.90;;;;;;5013819;28;20435;-50
2022/12/31 05:11:55;;;;;;;1.57;0.70;;;11.90;99.90;;;;;;5014693;28;20306;-51
2022/12/31 05:14:22;;;;;;;0.40;0.40;;;11.90;99.90;;;;;;5018668;28;20911;-51
2022/12/31 05:16:49;;;;;;;0.07;0.07;;;12.00;99.90;;;;;;5013486;28;20224;-52
2022/12/31 05:19:18;;;;;;;0.10;0.10;;;12.00;99.90;;;;;;5004685;28;20700;-49
2022/12/31 05:22:27;;;;;;;0.00;0.00;;;12.00;99.90;;;;;;5018463;28;20267;-50
2022/12/31 05:24:33;;;;;;;0.10;0.10;;;12.10;99.90;;;;;;5008655;28;20204;-50
2022/12/31 05:27:00;;;;;;;0.10;0.10;;;12.10;99.90;;;;;;5017785;28;20706;-52
2022/12/31 05:29:27;;;;;;;0.60;0.10;;;12.00;99.90;;;;;;5019026;28;20604;-50
2022/12/31 05:31:55;;;;;;;0.00;0.00;;;12.10;99.90;;;;;;5016323;28;20268;-50
2022/12/31 05:34:23;;;;;;;0.37;0.10;;;12.10;99.90;;;;;;5013359;28;20203;-50
2022/12/31 05:36:50;;;;;;;0.10;0.10;;;12.00;99.90;;;;;;5013020;28;20217;-50
2022/12/31 05:39:17;;;;;;;0.20;0.13;;;11.90;99.90;;;;;;5016921;28;20680;-50
2022/12/31 05:41:44;;;;;;;1.03;0.00;;;11.80;99.90;;;;;;5010442;28;20225;-51
2022/12/31 05:44:11;;;;;;;0.20;0.20;;;11.70;99.90;;;;;;5016288;28;20326;-49
2022/12/31 05:46:38;;;;;;;0.10;0.10;;;11.70;99.90;;;;;;5009382;28;20601;-50
2022/12/31 05:49:05;;;;;;;0.17;0.10;;;11.80;99.90;;;;;;4994631;28;20260;-50
2022/12/31 05:51:34;;;;;;;0.10;0.10;;;11.80;99.90;;;;;;4999861;28;20205;-50
2022/12/31 05:54:01;;;;;;;0.20;0.20;;;11.80;99.90;;;;;;4996438;28;20285;-51
2022/12/31 05:56:28;;;;;;;0.10;0.10;;;11.70;99.90;;;;;;4992964;28;20733;-51
2022/12/31 05:58:55;;;;;;;0.10;0.10;;;11.70;99.90;;;;;;4993694;28;20204;-50
2022/12/31 06:01:22;;;;;;;0.10;0.10;;;11.60;99.90;;;;;;4993085;28;20225;-51
2022/12/31 06:03:49;;;;;;;0.10;0.10;;;11.50;99.90;;;;;;4993289;28;20204;-50
2022/12/31 06:06:16;;;;;;;0.20;0.20;;;11.50;99.90;;;;;;4979777;28;20287;-51
2022/12/31 06:08:48;;;;;;;0.20;0.20;;;11.50;99.90;;;;;;4983291;28;20231;-51
2022/12/31 06:11:15;;;;;;;0.10;0.10;;;11.60;99.90;;;;;;4996737;28;20203;-51
2022/12/31 06:13:43;;;;;;;0.27;0.20;;;11.70;99.90;;;;;;4993931;28;20243;-50
2022/12/31 06:16:11;;;;;;;1.43;0.20;;;11.60;99.90;;;;;;4989251;28;20270;-50
2022/12/31 06:18:38;;;;;;;0.00;0.00;;;11.60;99.90;;;;;;4992496;28;20590;-50
2022/12/31 06:21:06;;;;;;;0.40;0.20;;;11.50;99.90;;;;;;4992890;28;20222;-50
2022/12/31 06:23:33;;;;;;;0.10;0.10;;;11.60;99.90;;;;;;4991211;28;20212;-50
2022/12/31 06:26:03;;;;;;;0.57;0.10;;;11.40;99.90;;;;;;4992259;28;20639;-52
2022/12/31 06:28:30;;;;;;;0.50;0.10;;;11.40;99.90;;;;;;4990541;28;20251;-50
2022/12/31 06:31:00;;;;;;;0.10;0.10;;;11.40;99.90;;;;;;4984163;28;20199;-50
2022/12/31 06:33:27;;;;;;;0.10;0.10;;;11.40;99.90;;;;;;4992466;28;20214;-51
2022/12/31 06:35:56;;;;;;;0.30;0.30;;;11.50;99.90;;;;;;4972847;28;20226;-50
2022/12/31 06:38:23;;;;;;;0.10;0.10;;;11.50;99.90;;;;;;4974461;28;20206;-50
2022/12/31 06:40:50;;;;;;;0.10;0.10;;;11.60;99.90;;;;;;4973409;28;20287;-50
2022/12/31 06:43:18;;;;;;;0.10;0.10;;;11.70;99.90;;;;;;4985827;28;20204;-51
2022/12/31 06:45:46;;;;;;;0.10;0.10;;;11.80;99.90;;;;;;4991836;28;20237;-50
2022/12/31 06:48:13;;;;;;;0.30;0.10;;;11.90;99.90;;;;;;5004047;28;20251;-52
2022/12/31 06:50:40;;;;;;;0.13;0.10;;;12.00;99.90;;;;;;5006659;28;20263;-50
2022/12/31 06:53:07;;;;;;;0.10;0.10;;;12.10;99.90;;;;;;5005488;28;20202;-51
2022/12/31 06:55:35;;;;;;;0.60;0.53;;;12.20;99.90;;;;;;5012064;28;20689;-50
2022/12/31 06:58:02;;;;;;;0.10;0.10;;;12.20;99.90;;;;;;4997912;28;20202;-50
2022/12/31 07:00:31;;;;;;;0.10;0.10;;;12.30;99.90;;;;;;5004591;28;20225;-51
2022/12/31 07:03:19;;;;;;;0.10;0.10;;;12.30;99.90;;;;;;4998735;28;20203;-50
2022/12/31 07:05:49;;;;;;;0.53;0.10;;;12.40;99.90;;;;;;5005972;28;20206;-51
2022/12/31 07:08:30;;;;;;;0.10;0.10;;;12.50;99.90;;;;;;5009882;28;20200;-50
2022/12/31 07:11:03;;;;;;;0.10;0.10;;;12.50;99.90;;;;;;4994375;28;20200;-50
2022/12/31 07:13:52;;;;;;;0.20;0.20;;;12.60;99.90;;;;;;4997342;28;20207;-50
2022/12/31 07:16:34;;;;;;;0.30;0.10;;;12.70;99.90;;;;;;4981721;28;20657;-51
2022/12/31 07:19:15;;;;;;;0.10;0.10;;;12.60;99.90;;;;;;5000027;28;20331;-50
2022/12/31 07:21:44;;;;;;;0.10;0.10;;;12.70;99.90;;;;;;4996163;28;20220;-50
2022/12/31 07:24:12;;;;;;;0.00;0.00;;;12.80;99.90;;;;;;4995322;28;20619;-50
2022/12/31 07:26:59;;;;;;;0.10;0.10;;;12.90;99.90;;;;;;4972605;28;20229;-49
2022/12/31 07:29:37;;;;;;;0.20;0.10;;;12.90;99.90;;;;;;4972893;28;20362;-50
2022/12/31 07:32:19;;;;;;;0.83;0.10;;;12.90;99.90;;;;;;4989294;28;20262;-50
2022/12/31 07:34:53;;;;;;;0.00;0.00;;;12.90;99.90;;;;;;5004003;28;20201;-50
2022/12/31 07:37:30;;;;;;;0.03;0.00;;;13.00;99.90;;;;;;5015819;28;20227;-50
2022/12/31 07:40:09;;;;;;;0.00;0.00;;;13.00;99.90;;;;;;4998921;28;20195;-50
2022/12/31 07:42:45;;;;;;;0.57;0.20;;;13.00;99.90;;;;;;4991944;28;20206;-52
2022/12/31 07:45:19;;;;;;;0.37;0.20;;;13.00;99.90;;;;;;5001119;28;20209;-51
2022/12/31 07:47:48;;;;;;;0.10;0.10;;;13.00;99.90;;;;;;5021158;28;20237;-51
2022/12/31 07:50:17;;;;;;;0.10;0.10;;;13.00;99.90;;;;;;5015337;28;20681;-49
2022/12/31 07:52:46;;;;;;;0.30;0.10;;;13.00;99.90;;;;;;4997542;28;20223;-49
2022/12/31 07:55:13;;;;;;;0.23;0.10;;;12.90;99.90;;;;;;5002897;28;20198;-49
2022/12/31 07:57:48;;;;;;;0.10;0.10;;;12.90;99.90;;;;;;5011843;28;20256;-49
2022/12/31 08:00:16;;;;;;;0.10;0.10;;;12.90;99.90;;;;;;5014579;28;20214;-50
2022/12/31 08:03:17;;;;;;;0.10;0.10;;;12.90;99.90;;;;;;5015073;28;20203;-49
2022/12/31 08:05:53;;;;;;;1.23;0.10;;;12.90;99.90;;;;;;4972262;28;20612;-49
2022/12/31 08:08:31;;;;;;;0.10;0.10;;;12.80;99.90;;;;;;5013664;28;20218;-48
2022/12/31 08:11:10;;;;;;;0.50;0.10;;;12.80;99.90;;;;;;5010243;28;20197;-50
2022/12/31 08:13:38;;;;;;;0.00;0.00;;;12.80;99.90;;;;;;5046980;22;20237;-52
2022/12/31 08:16:09;;;;;;;0.23;0.10;;;12.70;99.90;;;;;;5030779;28;20259;-53
2022/12/31 08:18:38;;;;;;;0.10;0.10;;;12.70;99.90;;;;;;5032739;28;20619;-51
2022/12/31 08:21:14;;;;;;;0.10;0.10;;;12.80;99.90;;;;;;5031176;28;20228;-52
2022/12/31 08:23:52;;;;;;;0.20;0.20;;;12.80;99.90;;;;;;5030192;28;20279;-52
2022/12/31 08:26:27;;;;;;;0.10;0.10;;;12.90;99.90;;;;;;5030488;28;20684;-51
2022/12/31 08:29:03;;;;;;;0.63;0.10;;;12.90;99.90;;;;;;5033278;28;20202;-51
2022/12/31 08:31:40;;;;;;;0.20;0.20;;;13.00;99.90;;;;;;5028224;28;20232;-51
2022/12/31 08:34:18;;;;;;;0.87;0.20;;;13.00;99.90;;;;;;5027547;28;20240;-52
2022/12/31 08:36:51;;;;;;;1.23;0.20;;;13.00;99.90;;;;;;5024549;28;20222;-52
2022/12/31 08:39:30;;;;;;;0.20;0.20;;;13.00;99.90;;;;;;5022545;28;20616;-51
2022/12/31 08:42:02;;;;;;;0.10;0.10;;;13.10;99.90;;;;;;5031033;28;20229;-51
2022/12/31 08:44:42;;;;;;;0.10;0.10;;;13.20;99.90;;;;;;5033192;28;20237;-52
2022/12/31 08:47:19;;;;;;;0.07;0.07;;;13.30;99.90;;;;;;5030931;28;20208;-52
2022/12/31 08:49:48;;;;;;;0.40;0.10;;;13.30;99.90;;;;;;5019942;28;20255;-52
2022/12/31 08:52:20;;;;;;;1.63;0.20;;;13.30;99.90;;;;;;5032919;28;20195;-52
2022/12/31 08:54:47;;;;;;;0.10;0.10;;;13.30;99.90;;;;;;5031967;28;20225;-51
2022/12/31 08:57:25;;;;;;;0.10;0.10;;;13.30;99.90;;;;;;5013304;28;20207;-53
2022/12/31 09:00:00;;;;;;;2.80;0.20;;;13.30;99.90;;;;;;5014041;28;20836;-51
2022/12/31 09:03:15;;;;;;;1.30;0.20;;;13.30;99.90;;;;;;5013026;28;20226;-52
2022/12/31 09:05:57;;;;;;;0.17;0.17;;;13.30;99.90;;;;;;4953986;28;20208;-52
2022/12/31 09:08:32;;;;;;;1.43;0.20;;;13.20;99.90;;;;;;5018729;28;20267;-52
2022/12/31 09:11:06;;;;;;;0.23;0.10;;;13.30;99.90;;;;;;5022003;28;20247;-51
2022/12/31 09:13:43;;;;;;;0.10;0.10;;;13.70;99.90;;;;;;5027345;28;20457;-51
2022/12/31 09:16:16;;;;;;;0.33;0.10;;;13.80;99.90;;;;;;5019809;28;20209;-51
2022/12/31 09:18:44;;;;;;;0.30;0.10;;;13.70;99.90;;;;;;5015637;28;21194;-51
2022/12/31 09:21:15;;;;;;;0.60;0.10;;;13.70;99.90;;;;;;5023884;28;20220;-52
2022/12/31 09:23:42;;;;;;;0.10;0.10;;;13.70;99.90;;;;;;5026292;28;20733;-52
2022/12/31 09:26:22;;;;;;;0.10;0.10;;;13.90;99.90;;;;;;5017616;28;20199;-52
2022/12/31 09:28:56;;;;;;;1.90;0.10;;;14.00;99.90;;;;;;5021293;28;20205;-52
2022/12/31 09:31:31;;;;;;;0.77;0.10;;;14.20;99.90;;;;;;5024348;28;20520;-52
2022/12/31 09:34:06;;;;;;;0.20;0.20;;;14.30;99.90;;;;;;5024293;28;20214;-52
2022/12/31 09:36:36;;;;;;;0.10;0.10;;;14.50;99.90;;;;;;5025542;28;20214;-52
2022/12/31 09:39:12;;;;;;;1.90;0.20;;;14.60;99.90;;;;;;5027223;28;20674;-52
2022/12/31 09:42:04;;;;;;;0.10;0.10;;;14.70;99.90;;;;;;5023985;28;20222;-52
2022/12/31 09:45:18;;;;;;;0.20;0.00;;;14.70;99.90;;;;;;5009271;28;20595;-52
2022/12/31 09:48:18;;;;;;;0.10;0.10;;;14.80;99.90;;;;;;5020569;28;20203;-52
2022/12/31 09:51:08;;;;;;;1.03;0.10;;;14.90;99.90;;;;;;5022324;28;20530;-53
2022/12/31 09:54:13;;;;;;;0.10;0.10;;;14.90;99.90;;;;;;5024415;28;20636;-52
2022/12/31 09:56:47;;;;;;;2.63;0.10;;;15.10;99.90;;;;;;4983920;28;20286;-52
2022/12/31 09:59:23;;;;;;;0.70;0.10;;;15.10;99.90;;;;;;5030734;28;20846;-52
2022/12/31 10:01:57;;;;;;;0.10;0.10;;;15.20;99.90;;;;;;5020004;28;20252;-52
2022/12/31 10:04:39;;;;;;;2.20;0.60;;;15.10;99.90;;;;;;5015030;28;20277;-53
2022/12/31 10:07:22;;;;;;;0.93;0.20;;;15.10;99.90;;;;;;5012965;28;20235;-52
2022/12/31 10:10:00;;;;;;;0.20;0.20;;;15.10;99.90;;;;;;5025864;28;20199;-53
2022/12/31 10:12:54;;;;;;;0.20;0.20;;;15.30;99.90;;;;;;5020154;28;20290;-52
2022/12/31 10:15:46;;;;;;;1.63;0.23;;;15.50;99.90;;;;;;5022747;28;20301;-52
2022/12/31 10:18:29;;;;;;;0.20;0.20;;;15.80;99.90;;;;;;5025191;28;20268;-52
2022/12/31 10:21:10;;;;;;;0.17;0.17;;;16.30;99.90;;;;;;5011472;28;20205;-52
2022/12/31 10:24:20;;;;;;;1.90;0.30;;;16.70;99.90;;;;;;5028303;28;20228;-52
2022/12/31 10:27:08;;;;;;;0.30;0.30;;;17.20;99.90;;;;;;4961964;28;20667;-52
2022/12/31 10:29:45;;;;;;;0.67;0.20;;;17.40;99.90;;;;;;5025155;28;20206;-52
2022/12/31 10:32:21;;;;;;;0.10;0.10;;;17.60;99.90;;;;;;5027498;28;20285;-52
2022/12/31 10:34:54;;;;;;;0.10;0.10;;;17.70;99.90;;;;;;5023809;28;20293;-53
2022/12/31 10:37:26;;;;;;;0.10;0.10;;;17.70;99.90;;;;;;5030895;28;20202;-51
2022/12/31 10:40:07;;;;;;;0.27;0.27;;;17.90;99.90;;;;;;5016029;28;20203;-51
2022/12/31 10:42:51;;;;;;;0.33;0.33;;;17.90;99.90;;;;;;5010921;28;20226;-50
2022/12/31 10:45:53;;;;;;;1.20;0.10;;;17.70;99.90;;;;;;5021636;28;20198;-50
2022/12/31 10:48:58;;;;;;;0.30;0.30;;;17.50;99.90;;;;;;5020215;28;20288;-51
2022/12/31 10:52:01;;;;;;;0.73;0.10;;;17.20;99.90;;;;;;5005076;28;20194;-50
2022/12/31 10:55:09;;;;;;;0.10;0.10;;;17.00;99.90;;;;;;5016394;28;20757;-51
2022/12/31 10:58:05;;;;;;;0.10;0.10;;;16.90;99.90;;;;;;5014646;28;20293;-51
2022/12/31 11:00:43;;;;;;;0.20;0.20;;;16.80;99.90;;;;;;5004892;28;20249;-50
2022/12/31 11:03:59;;;;;;;0.20;0.20;;;16.70;99.90;;;;;;5030188;28;20276;-51
2022/12/31 11:07:00;;;;;;;0.10;0.10;;;16.60;99.90;;;;;;5019755;28;20343;-50
2022/12/31 11:10:19;;;;;;;0.23;0.23;;;16.70;99.90;;;;;;5024213;28;20202;-49
2022/12/31 11:13:13;;;;;;;0.70;0.20;;;16.70;99.90;;;;;;4985684;28;20227;-50
2022/12/31 11:16:14;;;;;;;0.10;0.10;;;16.60;99.90;;;;;;5017994;28;20210;-51
2022/12/31 11:18:50;;;;;;;0.53;0.37;;;16.70;99.90;;;;;;5028621;28;20257;-50
2022/12/31 11:21:28;;;;;;;0.20;0.20;;;16.60;99.90;;;;;;5010654;28;20234;-50
2022/12/31 11:24:03;;;;;;;1.33;0.20;;;16.70;99.90;;;;;;5024567;28;20214;-50
2022/12/31 11:26:40;;;;;;;0.40;0.30;;;16.70;99.90;;;;;;5027795;28;20201;-51
2022/12/31 11:29:33;;;;;;;0.20;0.20;;;16.70;99.90;;;;;;5025926;28;20673;-50
2022/12/31 11:32:10;;;;;;;0.13;0.13;;;16.70;99.90;;;;;;5024410;28;20196;-50
2022/12/31 11:35:17;;;;;;;0.30;0.10;;;16.70;99.90;;;;;;5023582;28;20291;-51
2022/12/31 11:37:48;;;;;;;0.10;0.10;;;16.70;99.90;;;;;;5028170;28;20263;-51
2022/12/31 11:40:30;;;;;;;0.13;0.13;;;16.60;99.90;;;;;;5030337;28;20268;-50
2022/12/31 11:43:01;;;;;;;0.10;0.10;;;16.70;99.90;;;;;;5029883;28;20228;-51
2022/12/31 11:45:56;;;;;;;0.17;0.17;;;16.70;99.90;;;;;;5022639;28;20213;-50
2022/12/31 11:48:32;;;;;;;0.03;0.03;;;16.80;99.90;;;;;;5019453;28;20203;-51
2022/12/31 11:51:14;;;;;;;1.10;0.17;;;16.80;99.90;;;;;;5023044;28;20230;-51
2022/12/31 11:54:00;;;;;;;0.17;0.17;;;16.80;99.90;;;;;;5029952;28;20292;-51
2022/12/31 11:56:34;;;;;;;0.17;0.17;;;16.90;99.90;;;;;;5027373;28;20198;-50
2022/12/31 11:59:01;;;;;;;0.20;0.20;;;16.90;99.90;;;;;;5010251;28;20217;-50
2022/12/31 12:01:34;;;;;;;0.03;0.03;;;16.90;99.90;;;;;;5021783;28;20210;-50
2022/12/31 12:04:03;;;;;;;0.10;0.10;;;16.90;99.90;;;;;;5009863;28;20274;-51
2022/12/31 12:06:32;;;;;;;0.20;0.20;;;16.90;99.90;;;;;;5018414;28;20235;-51
2022/12/31 12:09:04;;;;;;;0.13;0.13;;;16.80;99.90;;;;;;5019326;28;20237;-51
2022/12/31 12:11:35;;;;;;;1.43;0.20;;;16.80;99.90;;;;;;5027571;28;20310;-51
2022/12/31 12:14:20;;;;;;;0.10;0.10;;;16.80;99.90;;;;;;5029502;28;20223;-51
2022/12/31 12:16:47;;;;;;;0.30;0.10;;;16.80;99.90;;;;;;5026842;28;20210;-50
2022/12/31 12:19:18;;;;;;;0.20;0.20;;;16.80;99.90;;;;;;5024833;28;20265;-51
2022/12/31 12:21:47;;;;;;;0.20;0.20;;;16.80;99.90;;;;;;5016964;28;20198;-51
2022/12/31 12:24:20;;;;;;;0.23;0.10;;;16.90;99.90;;;;;;5024751;28;20975;-50
2022/12/31 12:26:47;;;;;;;0.20;0.20;;;16.90;99.90;;;;;;5024243;28;20355;-50
2022/12/31 12:29:19;;;;;;;0.20;0.20;;;16.90;99.90;;;;;;5028477;28;20559;-51
2022/12/31 12:31:59;;;;;;;0.13;0.10;;;16.80;99.90;;;;;;5033084;28;20670;-50
2022/12/31 12:34:29;;;;;;;0.50;0.10;;;16.80;99.90;;;;;;5032152;28;20309;-51
2022/12/31 12:36:59;;;;;;;0.13;0.13;;;16.70;99.90;;;;;;5028196;28;20605;-50
2022/12/31 12:39:28;;;;;;;0.20;0.20;;;16.70;99.90;;;;;;5024589;28;20231;-51
2022/12/31 12:42:03;;;;;;;0.40;0.40;;;16.60;99.90;;;;;;5023331;28;20654;-50
2022/12/31 12:44:31;;;;;;;0.30;0.27;;;16.50;99.90;;;;;;5029308;28;20218;-51
2022/12/31 12:47:03;;;;;;;1.57;0.27;;;16.50;99.90;;;;;;5020153;28;20202;-51
2022/12/31 12:49:40;;;;;;;0.20;0.20;;;16.60;99.90;;;;;;5032197;28;20194;-50
2022/12/31 12:52:29;;;;;;;1.50;0.30;;;16.60;99.90;;;;;;5027493;28;20248;-51
2022/12/31 12:55:12;;;;;;;0.10;0.10;;;16.70;99.90;;;;;;5027347;28;20214;-50
2022/12/31 12:57:45;;;;;;;0.20;0.20;;;16.80;99.90;;;;;;5015152;28;20265;-50
2022/12/31 13:00:18;;;;;;;0.20;0.20;;;16.80;99.90;;;;;;5032986;28;20284;-52
2022/12/31 13:03:11;;;;;;;0.30;0.30;;;16.70;99.90;;;;;;5032662;28;20229;-53
2022/12/31 13:05:55;;;;;;;0.63;0.13;;;16.50;99.90;;;;;;5013570;28;20278;-53
2022/12/31 13:08:35;;;;;;;1.40;0.40;;;16.40;99.90;;;;;;5032708;28;20199;-53
2022/12/31 13:11:24;;;;;;;0.67;0.40;;;16.20;99.90;;;;;;5021514;28;20260;-52
2022/12/31 13:13:59;;;;;;;0.20;0.20;;;16.20;99.90;;;;;;5022513;28;20234;-51
2022/12/31 13:16:36;;;;;;;0.20;0.20;;;16.10;99.90;;;;;;5025918;28;20604;-51
2022/12/31 13:19:11;;;;;;;0.70;0.50;;;16.10;99.90;;;;;;5032038;28;20577;-51
2022/12/31 13:21:49;;;;;;;0.20;0.20;;;16.00;99.90;;;;;;5032719;28;20696;-51
2022/12/31 13:24:28;;;;;;;0.20;0.20;;;16.00;99.90;;;;;;5023758;28;20293;-50
2022/12/31 13:27:04;;;;;;;0.30;0.30;;;15.90;99.90;;;;;;5021278;28;20214;-50
2022/12/31 13:29:34;;;;;;;0.20;0.20;;;15.90;99.90;;;;;;5024782;28;20253;-50
2022/12/31 13:32:05;;;;;;;0.33;0.33;;;15.90;99.90;;;;;;5023211;28;20249;-49